Sierra Nevada Aquatic Research Lab (SNARL) Reserve, California Weather observations

Data are for 10 minute period ending at time listed.
 Day   Time   Solar   Ave.   Ave.  Ave.  Vector  Max.   Baro.   Total    
  of    of     Rad.   Air    Rel.  Wind   Wind   Wind  Press.  Precip.   
Year   Day            Temp.  Hum.  Speed  Dir.   Gust                    
2019   (PST)  Kw/m2    F      %     mph   deg.    mph    mb.     in.     
-------------------------------------------------------------------------
  20   17:10   0.00   38.6    54    8.2   238    14.0   778.6    0.00 
  20   17:20   0.00   38.7    53    8.9   230    20.1   778.4    0.00 
  20   17:30   0.00   38.5    53    7.2   251    18.8   778.4    0.00 
  20   17:40   0.00   39.1    53    6.6   210    12.6   778.6    0.00 
  20   17:50   0.00   36.2    71    7.5   143    13.2   778.7    0.00 
  20   18:00   0.00   34.6    79    3.9   256     9.1   778.6    0.00 
  20   18:10   0.00   33.5    86    2.5   196     7.2   778.7    0.00 
  20   18:20   0.00   32.6    91    4.8    85     8.3   778.5    0.00 
  20   18:30   0.00   32.0    94    7.1    92     9.2   778.3    0.00 
  20   18:40   0.00   31.7    96    4.9    77     7.9   778.0    0.00 
  20   18:50   0.00   31.6    97    4.0    76     6.5   777.9    0.00 
  20   19:00   0.00   31.5    97    3.5    81     5.8   777.9    0.00 
  20   19:10   0.00   31.4    98    7.0    81    10.4   777.4    0.00 
  20   19:20   0.00   31.2    98    6.8    89     9.1   777.4    0.00 
  20   19:30   0.00   31.1    98    8.3    89    10.8   777.2    0.00 
  20   19:40   0.00   31.1    98    4.9    77     9.1   777.1    0.00 
  20   19:50   0.00   31.2    98    3.3    70     6.2   776.7    0.00 
  20   20:00   0.00   31.2    98    3.2    67     6.7   776.5    0.00 
  20   20:10   0.00   31.3    98    3.9    73     7.1   776.3    0.00 
  20   20:20   0.00   31.2    98    3.8    33     7.6   776.1    0.00 
  20   20:30   0.00   31.2    98    2.7    21     5.3   775.9    0.00 
  20   20:40   0.00   31.2    98    0.0     0     0.0   775.6    0.00 
  20   20:50   0.00   31.2    99    1.0     2     5.8   775.5    0.00 
  20   21:00   0.00   31.2    99    3.5   352     7.3   775.4    0.00 
  20   21:10   0.00   31.3    99    3.7   357     6.9   775.4    0.00 
  20   21:20   0.00   31.4    99    3.6   350    13.7   775.2    0.00 
  20   21:30   0.00   31.3    98    4.6   259     9.0   774.9    0.00 
  20   21:40   0.00   31.2    98    2.8   278     9.1   774.8    0.00 
  20   21:50   0.00   31.1    96    5.6   244    13.4   774.7    0.00 
  20   22:00   0.00   31.1    90    7.6   254    13.4   774.7    0.00 
  20   22:10   0.00   30.9    88    7.6   252    18.6   774.7    0.00 
  20   22:20   0.00   30.1    88   10.7   268    16.7   774.5    0.00 
  20   22:30   0.00   29.6    87   15.1   260    32.7   774.4    0.00 
  20   22:40   0.00   29.5    84   11.7   243    20.8   774.7    0.00 
  20   22:50   0.00   29.3    80   13.3   248    27.0   774.9    0.00 
  20   23:00   0.00   28.3    84    7.4   271    17.3   774.7    0.00 
  20   23:10   0.00   27.7    89    2.5   297     6.4   774.7    0.00 
  20   23:20   0.00   27.4    92    3.1   336     8.4   774.4    0.00 
  20   23:30   0.00   27.7    86    6.7   244    12.9   774.4    0.00 
  20   23:40   0.00   27.3    86   15.9   275    29.2   774.9    0.00 
  20   23:50   0.00   25.2    94   18.9   268    28.9   775.6    0.00 
  21    0:00   0.00   23.9    94   17.4   272    29.7   775.9    0.00 
  21    0:10   0.00   23.0    94   20.0   267    32.8   776.2    0.00 
  21    0:20   0.00   22.5    95   20.6   262    30.0   776.4    0.00 
  21    0:30   0.00   22.1    94   13.6   254    20.2   776.5    0.00 
  21    0:40   0.00   22.0    92   11.1   253    20.6   776.2    0.00 
  21    0:50   0.00   21.8    93    7.1   281    10.4   776.3    0.00 
  21    1:00   0.00   21.8    94    8.6   282    14.9   776.2    0.00 
  21    1:10   0.00   22.1    89   11.1   267    17.7   776.1    0.00 
  21    1:20   0.00   22.9    77   11.7   252    18.8   775.8    0.00 
  21    1:30   0.00   23.4    66   20.6   245    31.3   775.7    0.00 
  21    1:40   0.00   23.4    63   21.7   236    34.0   775.6    0.00 
  21    1:50   0.00   23.3    61   27.1   228    46.9   775.4    0.00 
  21    2:00   0.00   23.0    61   29.5   233    42.4   775.2    0.00 
  21    2:10   0.00   22.5    64   30.1   235    52.8   775.1    0.00 
  21    2:20   0.00   22.5    65   30.8   234    47.9   775.3    0.00 
  21    2:30   0.00   22.4    67   27.1   229    42.7   775.5    0.00 
  21    2:40   0.00   22.7    63   23.4   233    39.0   775.8    0.00 
  21    2:50   0.00   22.7    63   23.0   234    35.7   775.6    0.00 
  21    3:00   0.00   22.5    63   30.9   233    49.4   775.0    0.00 
  21    3:10   0.00   22.1    66   40.3   229    58.6   774.5    0.00 
  21    3:20   0.00   21.3    74   45.5   231    60.6   774.1    0.00 
  21    3:30   0.00   21.7    70   43.9   236    62.9   774.1    0.00 
  21    3:40   0.00   22.4    65   33.6   241    52.6   774.7    0.00 
  21    3:50   0.00   22.7    61   29.4   237    45.2   775.1    0.00 
  21    4:00   0.00   22.7    63   38.3   229    65.1   775.0    0.00 
  21    4:10   0.00   22.7    65   41.4   227    64.9   774.8    0.00 
  21    4:20   0.00   22.5    67   42.1   229    62.4   774.5    0.00 
  21    4:30   0.00   22.3    68   38.9   228    58.3   774.2    0.00 
  21    4:40   0.00   22.6    65   40.8   228    62.3   774.3    0.00 
  21    4:50   0.00   22.9    64   40.5   230    65.4   774.5    0.00 
  21    5:00   0.00   23.1    63   40.0   222    61.7   774.4    0.00 
  21    5:10   0.00   23.3    60   38.4   225    56.5   774.5    0.00 
  21    5:20   0.00   23.9    58   36.4   226    56.0   774.9    0.00 
  21    5:30   0.00   23.8    58   34.7   220    48.2   775.1    0.00 
  21    5:40   0.00   24.3    56   32.1   223    47.4   775.6    0.00 
  21    5:50   0.00   24.6    55   33.4   222    46.4   775.7    0.00 
  21    6:00   0.00   25.6    49   26.6   230    40.7   776.2    0.00 
  21    6:10   0.00   26.0    48   18.9   245    43.0   776.7    0.00 
  21    6:20   0.00   25.1    51   12.3   265    18.7   777.1    0.00 
  21    6:30   0.00   25.2    50   13.3   269    19.1   777.5    0.00 
  21    6:40   0.00   24.9    52   14.3   266    24.3   777.7    0.00 
  21    6:50   0.00   25.8    47   14.9   270    25.4   777.8    0.00 
  21    7:00   0.00   26.7    45   16.0   270    26.6   778.0    0.00 
  21    7:10   0.00   26.6    45   18.7   258    35.9   778.1    0.00 
  21    7:20   0.01   27.4    43   19.9   250    29.4   778.2    0.00 
  21    7:30   0.03   27.8    42   18.7   249    27.8   778.4    0.00 
  21    7:40   0.04   27.6    44   20.2   242    31.7   778.6    0.00 
  21    7:50   0.07   28.0    42   19.4   246    29.4   778.7    0.00 
  21    8:00   0.10   28.3    42   18.8   256    29.3   778.9    0.00 
  21    8:10   0.11   28.6    41   16.3   263    26.8   779.0    0.00 
  21    8:20   0.13   28.6    40   18.5   254    25.9   779.1    0.00 
  21    8:30   0.12   28.7    40   16.5   258    24.8   779.2    0.00 
  21    8:40   0.15   28.6    40   15.7   267    24.7   779.4    0.00 
  21    8:50   0.27   29.1    40   14.9   266    21.6   779.5    0.00 
  21    9:00   0.31   30.4    38   14.2   267    22.3   779.7    0.00 
  21    9:10   0.34   30.2    38   14.4   266    22.4   779.9    0.00 
  21    9:20   0.41   30.8    38   14.3   260    21.5   780.1    0.00 
  21    9:30   0.41   30.9    38   13.4   256    21.2   780.3    0.02 
  21    9:40   0.37   30.8    38   11.7   252    17.0   780.6    0.00 
  21    9:50   0.35   30.7    39    8.0   257    15.3   780.8    0.00 
  21   10:00   0.45   32.4    39    5.9   299    11.7   781.0    0.01 
  21   10:10   0.33   31.5    42    3.9   292     7.5   781.1    0.02 
  21   10:20   0.34   32.1    40    4.4   286     9.3   781.3    0.03 
  21   10:30   0.32   32.3    42    4.8   302     9.4   781.5    0.02 
  21   10:40   0.29   31.3    51    3.7   333     6.8   781.7    0.00 
  21   10:50   0.37   32.0    50    4.9     4     8.3   781.8    0.00 
  21   11:00   0.33   32.0    52    5.4   354    10.1   781.8    0.00 
  21   11:10   0.35   32.3    52    4.2   341     7.4   781.9    0.00 
  21   11:20   0.34   32.3    53    4.1   346    11.3   782.0    0.00 
  21   11:30   0.34   32.5    53    4.9   343     9.6   782.0    0.00 
  21   11:40   0.34   32.5    52    4.7   340     9.0   782.1    0.00 
  21   11:50   0.36   32.4    53    4.9   337     9.7   782.1    0.00 
  21   12:00   0.42   32.8    51    3.9   318     7.8   782.0    0.00 
  21   12:10   0.46   33.5    51    4.7   334     9.1   782.0    0.00 
  21   12:20   0.29   32.7    53    5.5   327     9.4   781.9    0.00 
  21   12:30   0.28   32.2    54    6.0   327    12.1   781.9    0.00 
  21   12:40   0.29   31.1    57    7.5   324    12.4   781.9    0.00 
  21   12:50   0.31   31.5    54    7.1   316    13.4   781.9    0.00 
  21   13:00   0.35   31.7    52    6.9   304    14.2   781.9    0.00 
  21   13:10   0.24   31.3    52    7.5   307    14.4   781.9    0.00 
  21   13:20   0.26   30.9    54    5.8   314    10.2   782.0    0.00 
  21   13:30   0.19   30.7    51    6.3   306    12.2   782.0    0.00 
  21   13:40   0.36   30.1    51    6.2   314    10.9   782.1    0.00 
  21   13:50   0.32   32.1    49    8.1   318    15.2   782.2    0.00 
  21   14:00   0.15   29.7    55   11.0   321    18.3   782.4    0.00 
  21   14:10   0.26   29.0    56    7.4   307    14.9   782.5    0.00 
  21   14:20   0.43   30.9    54    6.5   310    13.2   782.5    0.00 
  21   14:30   0.20   30.4    55    6.0   298    11.4   782.6    0.00 
  21   14:40   0.20   30.1    57    5.2   309    11.1   782.7    0.00 
  21   14:50   0.16   30.1    58    4.4   314     9.9   782.8    0.00 
  21   15:00   0.11   29.1    56    5.7   316    12.2   783.0    0.00 
  21   15:10   0.09   28.3    58   10.1   324    17.0   783.2    0.00 
  21   15:20   0.07   27.7    60    8.3   323    15.3   783.3    0.00 
  21   15:30   0.11   27.9    59    6.6   314     9.9   783.3    0.00 
  21   15:40   0.10   28.6    59    4.3   315     9.2   783.4    0.00 
  21   15:50   0.07   28.2    60    5.7   322    14.2   783.5    0.00 
  21   16:00   0.08   27.2    65    6.4   282    13.1   783.5    0.00 
  21   16:10   0.05   27.2    66    4.3   315     8.5   783.6    0.00 
  21   16:20   0.02   26.8    69    2.1   298     6.2   783.7    0.00 
  21   16:30   0.02   26.1    70    1.9   349     4.7   783.9    0.00 
  21   16:40   0.01   25.3    72    2.2   316     5.2   784.0    0.00 
  21   16:50   0.01   24.9    73    3.4   277     9.5   784.1    0.00 
  21   17:00   0.01   25.4    69    6.3   279    10.7   784.3    0.00 

Return to SNARL Reserve graphs page.


Western Regional Climate Center,wrcc@dri.edu